Time,TemperatureF,DewpointF,PressureIn,WindDirection,WindDirectionDegrees,WindSpeedMPH,WindSpeedGustMPH,Humidity,HourlyPrecipIn,Conditions,Clouds,dailyrainin,SoftwareType,DateUTC
2013-01-16 00:00:00,17.9,14.4,30.17,SSE,159,2.0,2.3,86,0.00,RA,,0.00,WeatherDisplay:10.37,2013-01-16 06:00:00,
2013-01-16 00:05:00,17.7,14.2,30.17,SSE,160,1.7,2.3,86,0.00,RA,,0.00,WeatherDisplay:10.37,2013-01-16 06:05:00,
2013-01-16 00:10:00,17.9,14.4,30.17,SSE,159,1.3,2.3,86,0.00,RA,,0.00,WeatherDisplay:10.37,2013-01-16 06:10:00,
2013-01-16 00:15:00,18.0,14.5,30.16,SSE,159,3.0,3.5,86,0.00,CLR,,0.00,WeatherDisplay:10.37,2013-01-16 06:15:00,
2013-01-16 00:20:00,18.2,14.7,30.16,SSE,159,1.7,2.3,86,0.00,CLR,,0.00,WeatherDisplay:10.37,2013-01-16 06:20:00,
2013-01-16 00:25:00,18.0,14.5,30.16,WSW,240,2.8,4.6,86,0.00,CLR,,0.00,WeatherDisplay:10.37,2013-01-16 06:25:00,
2013-01-16 00:30:00,18.1,14.6,30.16,SW,221,2.4,3.5,86,0.00,CLR,,0.00,WeatherDisplay:10.37,2013-01-16 06:30:00,
2013-01-16 00:35:00,18.1,14.4,30.16,SW,221,3.0,3.5,85,0.00,CLR,,0.00,WeatherDisplay:10.37,2013-01-16 06:35:00,
2013-01-16 00:40:00,18.4,14.6,30.16,SW,221,2.2,3.5,85,0.00,CLR,,0.00,WeatherDisplay:10.37,2013-01-16 06:40:00,
2013-01-16 00:45:00,18.5,14.7,30.16,SW,221,2.9,4.6,85,0.00,CLR,,0.00,WeatherDisplay:10.37,2013-01-16 06:45:00,
2013-01-16 00:50:00,18.7,14.9,30.16,SW,221,2.5,3.5,85,0.00,CLR,,0.00,WeatherDisplay:10.37,2013-01-16 06:50:00,
2013-01-16 00:55:00,18.5,14.5,30.16,WSW,241,3.4,3.5,84,0.00,CLR,,0.00,WeatherDisplay:10.37,2013-01-16 06:55:00,
2013-01-16 01:00:00,18.3,14.3,30.15,SW,233,2.1,3.5,84,0.00,CLR,,0.00,WeatherDisplay:10.37,2013-01-16 07:00:00,
2013-01-16 01:05:00,18.4,14.4,30.15,SW,233,2.0,3.5,84,0.00,CLR,,0.00,WeatherDisplay:10.37,2013-01-16 07:05:00,
2013-01-16 01:10:00,18.2,14.2,30.14,SW,233,2.1,3.5,84,0.00,CLR,,0.00,WeatherDisplay:10.37,2013-01-16 07:10:00,
2013-01-16 01:15:00,17.9,13.6,30.15,SW,233,2.0,2.3,83,0.00,CLR,,0.00,WeatherDisplay:10.37,2013-01-16 07:15:00,
2013-01-16 01:20:00,17.6,13.6,30.15,SW,233,2.3,3.5,84,0.00,CLR,,0.00,WeatherDisplay:10.37,2013-01-16 07:20:00,
2013-01-16 01:25:00,17.6,13.6,30.15,SW,233,2.0,3.5,84,0.00,CLR,,0.00,WeatherDisplay:10.37,2013-01-16 07:25:00,
2013-01-16 01:31:00,17.6,13.6,30.14,SW,233,1.8,2.3,84,0.00,CLR,,0.00,WeatherDisplay:10.37,2013-01-16 07:31:00,
2013-01-16 01:36:00,17.6,13.6,30.14,SW,233,2.2,3.5,84,0.00,CLR,,0.00,WeatherDisplay:10.37,2013-01-16 07:36:00,
2013-01-16 01:41:00,17.9,13.9,30.14,SW,233,1.3,2.3,84,0.00,CLR,,0.00,WeatherDisplay:10.37,2013-01-16 07:41:00,
2013-01-16 01:46:00,18.1,13.8,30.14,SW,233,1.0,2.3,83,0.00,CLR,,0.00,WeatherDisplay:10.37,2013-01-16 07:46:00,
2013-01-16 01:51:00,17.5,13.2,30.14,SW,232,1.7,3.5,83,0.00,CLR,,0.00,WeatherDisplay:10.37,2013-01-16 07:51:00,
2013-01-16 01:56:00,17.1,12.8,30.14,SW,232,1.7,2.3,83,0.00,CLR,,0.00,WeatherDisplay:10.37,2013-01-16 07:56:00,
2013-01-16 02:01:00,16.4,12.4,30.14,South,184,1.5,3.5,84,0.00,CLR,,0.00,WeatherDisplay:10.37,2013-01-16 08:01:00,
2013-01-16 02:06:00,16.8,13.1,30.14,SSW,205,3.0,3.5,85,0.00,CLR,,0.00,WeatherDisplay:10.37,2013-01-16 08:06:00,
2013-01-16 02:11:00,16.5,12.5,30.14,SSE,159,3.8,3.8,84,0.00,CLR,,0.00,WeatherDisplay:10.37,2013-01-16 08:11:00,
2013-01-16 02:16:00,16.0,12.0,30.14,SSE,159,3.2,3.5,84,0.00,CLR,,0.00,WeatherDisplay:10.37,2013-01-16 08:16:00,
2013-01-16 02:21:00,15.5,11.8,30.14,South,178,2.9,4.6,85,0.00,CLR,,0.00,WeatherDisplay:10.37,2013-01-16 08:21:00,
2013-01-16 02:26:00,15.2,11.5,30.14,South,178,3.1,3.5,85,0.00,CLR,,0.00,WeatherDisplay:10.37,2013-01-16 08:26:00,
2013-01-16 02:31:00,15.2,11.8,30.14,South,181,2.8,3.5,86,0.00,CLR,,0.00,WeatherDisplay:10.37,2013-01-16 08:31:00,
2013-01-16 02:36:00,15.0,11.3,30.14,South,174,4.8,4.8,85,0.00,CLR,,0.00,WeatherDisplay:10.37,2013-01-16 08:36:00,
2013-01-16 02:41:00,14.5,11.1,30.13,South,185,2.5,3.5,86,0.00,CLR,,0.00,WeatherDisplay:10.37,2013-01-16 08:41:00,
2013-01-16 02:46:00,14.3,10.9,30.13,South,188,2.8,4.6,86,0.00,CLR,,0.00,WeatherDisplay:10.37,2013-01-16 08:46:00,
2013-01-16 02:51:00,14.3,11.1,30.13,South,173,3.0,3.5,87,0.00,CLR,,0.00,WeatherDisplay:10.37,2013-01-16 08:51:00,
2013-01-16 02:56:00,14.3,11.1,30.13,South,171,3.8,5.8,87,0.00,CLR,,0.00,WeatherDisplay:10.37,2013-01-16 08:56:00,
2013-01-16 03:01:00,14.5,11.3,30.13,South,171,3.5,6.9,87,0.00,CLR,,0.00,WeatherDisplay:10.37,2013-01-16 09:01:00,
2013-01-16 03:06:00,14.8,11.6,30.12,SSE,150,3.0,3.5,87,0.00,CLR,,0.00,WeatherDisplay:10.37,2013-01-16 09:06:00,
2013-01-16 03:11:00,14.8,11.6,30.12,SSE,163,3.2,3.5,87,0.00,CLR,,0.00,WeatherDisplay:10.37,2013-01-16 09:11:00,
2013-01-16 03:16:00,14.8,11.6,30.12,South,170,3.9,5.0,87,0.00,CLR,,0.00,WeatherDisplay:10.37,2013-01-16 09:16:00,
2013-01-16 03:21:00,14.8,11.6,30.12,South,189,3.4,5.0,87,0.00,CLR,,0.00,WeatherDisplay:10.37,2013-01-16 09:21:00,
2013-01-16 03:26:00,14.8,11.6,30.12,South,175,3.0,3.5,87,0.00,CLR,,0.00,WeatherDisplay:10.37,2013-01-16 09:26:00,
2013-01-16 03:31:00,14.7,11.5,30.11,South,174,3.0,3.5,87,0.00,CLR,,0.00,WeatherDisplay:10.37,2013-01-16 09:31:00,
2013-01-16 03:36:00,14.7,11.5,30.11,South,172,3.0,5.8,87,0.00,CLR,,0.00,WeatherDisplay:10.37,2013-01-16 09:36:00,
2013-01-16 03:41:00,14.5,11.3,30.11,SSE,159,3.9,4.6,87,0.00,CLR,,0.00,WeatherDisplay:10.37,2013-01-16 09:41:00,
2013-01-16 03:46:00,14.4,11.2,30.10,SSE,164,2.0,2.3,87,0.00,CLR,,0.00,WeatherDisplay:10.37,2013-01-16 09:46:00,
2013-01-16 03:51:00,14.2,11.0,30.10,SSE,157,4.1,5.8,87,0.00,CLR,,0.00,WeatherDisplay:10.37,2013-01-16 09:51:00,
2013-01-16 03:56:00,14.1,11.2,30.09,SSE,155,4.0,4.6,88,0.00,CLR,,0.00,WeatherDisplay:10.37,2013-01-16 09:56:00,
2013-01-16 04:02:00,13.8,10.9,30.09,SSE,159,2.7,3.5,88,0.00,CLR,,0.00,WeatherDisplay:10.37,2013-01-16 10:02:00,
2013-01-16 04:07:00,13.5,10.4,30.09,SSE,159,1.3,1.3,87,0.00,CLR,,0.00,WeatherDisplay:10.37,2013-01-16 10:07:00,
2013-01-16 04:12:00,13.6,10.7,30.09,SSE,152,3.0,3.5,88,0.00,CLR,,0.00,WeatherDisplay:10.37,2013-01-16 10:12:00,
2013-01-16 04:17:00,13.7,10.8,30.08,South,169,2.9,3.5,88,0.00,CLR,,0.00,WeatherDisplay:10.37,2013-01-16 10:17:00,
2013-01-16 04:22:00,13.7,10.8,30.07,South,177,3.3,6.9,88,0.00,CLR,,0.00,WeatherDisplay:10.37,2013-01-16 10:22:00,
2013-01-16 04:27:00,13.6,10.7,30.07,South,175,3.3,4.6,88,0.00,CLR,,0.00,WeatherDisplay:10.37,2013-01-16 10:27:00,
2013-01-16 04:32:00,13.7,10.8,30.07,SSE,161,3.7,3.7,88,0.00,CLR,,0.00,WeatherDisplay:10.37,2013-01-16 10:32:00,
2013-01-16 04:37:00,13.9,11.0,30.06,SSE,159,3.4,4.6,88,0.00,CLR,,0.00,WeatherDisplay:10.37,2013-01-16 10:37:00,
2013-01-16 04:42:00,13.9,10.7,30.06,South,171,2.8,4.6,87,0.00,CLR,,0.00,WeatherDisplay:10.37,2013-01-16 10:42:00,
2013-01-16 04:47:00,13.8,10.6,30.06,South,171,3.1,3.5,87,0.00,CLR,,0.00,WeatherDisplay:10.37,2013-01-16 10:47:00,
2013-01-16 04:52:00,13.6,10.5,30.06,SSE,165,3.0,3.5,87,0.00,CLR,,0.00,WeatherDisplay:10.37,2013-01-16 10:52:00,
2013-01-16 04:57:00,13.2,10.1,30.05,South,187,3.0,6.0,87,0.00,CLR,,0.00,WeatherDisplay:10.37,2013-01-16 10:57:00,
2013-01-16 05:02:00,13.1,10.2,30.06,SSW,197,2.5,4.0,88,0.00,CLR,,0.00,WeatherDisplay:10.37,2013-01-16 11:02:00,
2013-01-16 05:07:00,13.3,10.4,30.06,South,188,2.6,3.5,88,0.00,CLR,,0.00,WeatherDisplay:10.37,2013-01-16 11:07:00,
2013-01-16 05:12:00,13.5,10.6,30.06,SSW,198,2.7,2.7,88,0.00,CLR,,0.00,WeatherDisplay:10.37,2013-01-16 11:12:00,
2013-01-16 05:17:00,13.7,10.8,30.06,SSW,211,3.0,3.5,88,0.00,CLR,,0.00,WeatherDisplay:10.37,2013-01-16 11:17:00,
2013-01-16 05:22:00,14.0,11.1,30.06,SSW,202,3.8,6.9,88,0.00,CLR,,0.00,WeatherDisplay:10.37,2013-01-16 11:22:00,
2013-01-16 05:27:00,14.4,11.5,30.06,SW,219,6.1,6.9,88,0.00,CLR,,0.00,WeatherDisplay:10.37,2013-01-16 11:27:00,
2013-01-16 05:32:00,14.8,11.6,30.05,SSW,207,6.2,6.9,87,0.00,CLR,,0.00,WeatherDisplay:10.37,2013-01-16 11:32:00,
2013-01-16 05:37:00,15.2,12.0,30.05,SSW,209,9.0,11.5,87,0.00,CLR,,0.00,WeatherDisplay:10.37,2013-01-16 11:37:00,
2013-01-16 05:42:00,15.6,12.2,30.05,SSW,198,5.8,9.2,86,0.00,CLR,,0.00,WeatherDisplay:10.37,2013-01-16 11:42:00,
2013-01-16 05:47:00,15.7,12.0,30.05,SSW,198,8.4,11.5,85,0.00,CLR,,0.00,WeatherDisplay:10.37,2013-01-16 11:47:00,
2013-01-16 05:52:00,15.7,11.7,30.05,South,188,7.0,12.0,84,0.00,CLR,,0.00,WeatherDisplay:10.37,2013-01-16 11:52:00,
2013-01-16 05:57:00,15.7,11.7,30.05,SSW,197,7.5,10.4,84,0.00,CLR,,0.00,WeatherDisplay:10.37,2013-01-16 11:57:00,
2013-01-16 06:02:00,15.5,11.5,30.05,SSW,200,5.6,9.2,84,0.00,CLR,,0.00,WeatherDisplay:10.37,2013-01-16 12:02:00,
2013-01-16 06:07:00,15.2,11.0,30.05,South,187,5.6,6.9,83,0.00,CLR,,0.00,WeatherDisplay:10.37,2013-01-16 12:07:00,
2013-01-16 06:12:00,14.9,10.7,30.05,South,174,6.2,6.9,83,0.00,CLR,,0.00,WeatherDisplay:10.37,2013-01-16 12:12:00,
2013-01-16 06:17:00,14.6,10.6,30.05,South,171,5.1,6.9,84,0.00,CLR,,0.00,WeatherDisplay:10.37,2013-01-16 12:17:00,
2013-01-16 06:22:00,14.5,10.5,30.04,South,176,5.0,5.0,84,0.00,CLR,,0.00,WeatherDisplay:10.37,2013-01-16 12:22:00,
2013-01-16 06:27:00,14.3,10.4,30.04,South,173,4.3,5.8,84,0.00,CLR,,0.00,WeatherDisplay:10.37,2013-01-16 12:27:00,
2013-01-16 06:33:00,14.2,10.5,30.04,South,175,5.8,9.2,85,0.00,CLR,,0.00,WeatherDisplay:10.37,2013-01-16 12:33:00,
2013-01-16 06:38:00,14.0,10.3,30.03,South,179,5.4,8.1,85,0.00,CLR,,0.00,WeatherDisplay:10.37,2013-01-16 12:38:00,
2013-01-16 06:43:00,13.9,10.2,30.03,SSE,165,3.8,4.6,85,0.00,CLR,,0.00,WeatherDisplay:10.37,2013-01-16 12:43:00,
2013-01-16 06:48:00,14.1,10.4,30.03,SSW,200,6.8,9.2,85,0.00,CLR,,0.00,WeatherDisplay:10.37,2013-01-16 12:48:00,
2013-01-16 06:53:00,14.3,10.6,30.02,South,169,6.0,6.9,85,0.00,CLR,,0.00,WeatherDisplay:10.37,2013-01-16 12:53:00,
2013-01-16 06:58:00,14.0,10.1,30.02,South,189,3.5,7.0,84,0.00,CLR,,0.00,WeatherDisplay:10.37,2013-01-16 12:58:00,
2013-01-16 07:03:00,13.7,9.8,30.02,SSW,196,4.1,9.2,84,0.00,CLR,,0.00,WeatherDisplay:10.37,2013-01-16 13:03:00,
2013-01-16 07:08:00,13.5,9.8,30.02,SSW,197,3.8,6.9,85,0.00,CLR,,0.00,WeatherDisplay:10.37,2013-01-16 13:08:00,
2013-01-16 07:13:00,13.4,9.7,30.02,South,171,4.5,6.9,85,0.00,CLR,,0.00,WeatherDisplay:10.37,2013-01-16 13:13:00,
2013-01-16 07:18:00,13.5,9.8,30.02,SSE,168,4.0,6.9,85,0.00,CLR,,0.00,WeatherDisplay:10.37,2013-01-16 13:18:00,
2013-01-16 07:23:00,13.5,9.8,30.02,South,174,4.5,5.8,85,0.00,CLR,,0.00,WeatherDisplay:10.37,2013-01-16 13:23:00,
2013-01-16 07:28:00,13.9,10.2,30.01,SSE,165,5.0,8.1,85,0.00,CLR,,0.00,WeatherDisplay:10.37,2013-01-16 13:28:00,
2013-01-16 07:33:00,14.5,10.8,30.02,SW,228,8.1,11.5,85,0.00,CLR,,0.00,WeatherDisplay:10.37,2013-01-16 13:33:00,
2013-01-16 07:38:00,15.0,11.0,30.02,SSW,200,7.2,9.2,84,0.00,CLR,,0.00,WeatherDisplay:10.37,2013-01-16 13:38:00,
2013-01-16 07:43:00,15.5,11.3,30.03,SSW,195,9.9,11.5,83,0.00,CLR,,0.00,WeatherDisplay:10.37,2013-01-16 13:43:00,
2013-01-16 07:49:00,15.7,11.2,30.02,SSW,202,7.0,10.4,82,0.00,CLR,,0.00,WeatherDisplay:10.37,2013-01-16 13:49:00,
2013-01-16 07:54:00,15.7,11.2,30.03,South,190,7.4,11.5,82,0.00,CLR,,0.00,WeatherDisplay:10.37,2013-01-16 13:54:00,
2013-01-16 07:59:00,15.8,11.3,30.03,SSW,196,8.1,11.5,82,0.00,CLR,,0.00,WeatherDisplay:10.37,2013-01-16 13:59:00,
2013-01-16 08:04:00,15.8,11.3,30.03,SSW,204,7.6,11.5,82,0.00,CLR,,0.00,WeatherDisplay:10.37,2013-01-16 14:04:00,
2013-01-16 08:09:00,16.0,11.5,30.02,SSW,201,6.2,6.9,82,0.00,CLR,,0.00,WeatherDisplay:10.37,2013-01-16 14:09:00,
2013-01-16 08:14:00,16.3,11.8,30.03,SSW,198,7.5,8.1,82,0.00,CLR,,0.00,WeatherDisplay:10.37,2013-01-16 14:14:00,
2013-01-16 08:19:00,16.9,12.1,30.03,South,180,6.7,6.9,81,0.00,CLR,,0.00,WeatherDisplay:10.37,2013-01-16 14:19:00,
2013-01-16 08:24:00,17.2,12.4,30.02,SSE,164,6.4,8.1,81,0.00,CLR,,0.00,WeatherDisplay:10.37,2013-01-16 14:24:00,
2013-01-16 08:29:00,17.3,12.5,30.03,SSW,202,6.5,6.9,81,0.00,CLR,,0.00,WeatherDisplay:10.37,2013-01-16 14:29:00,
2013-01-16 08:34:00,17.6,12.8,30.02,SSE,167,6.6,9.2,81,0.00,CLR,,0.00,WeatherDisplay:10.37,2013-01-16 14:34:00,
2013-01-16 08:39:00,17.9,12.8,30.02,SSW,193,8.9,13.8,80,0.00,CLR,,0.00,WeatherDisplay:10.37,2013-01-16 14:39:00,
2013-01-16 08:44:00,18.2,13.1,30.02,South,171,7.7,11.5,80,0.00,CLR,,0.00,WeatherDisplay:10.37,2013-01-16 14:44:00,
2013-01-16 08:51:00,18.6,13.5,30.01,South,183,5.7,11.5,80,0.00,CLR,,0.00,WeatherDisplay:10.37,2013-01-16 14:51:00,
2013-01-16 08:56:00,19.1,13.9,30.02,SSW,196,7.8,13.8,80,0.00,CLR,,0.00,WeatherDisplay:10.37,2013-01-16 14:56:00,
2013-01-16 09:01:00,19.3,14.1,30.01,SSE,159,6.1,8.1,80,0.00,CLR,,0.00,WeatherDisplay:10.37,2013-01-16 15:01:00,
2013-01-16 09:06:00,20.0,14.8,30.01,South,182,7.6,9.2,80,0.00,CLR,,0.00,WeatherDisplay:10.37,2013-01-16 15:06:00,
2013-01-16 09:11:00,20.7,15.5,30.01,South,180,7.0,7.0,80,0.00,CLR,,0.00,WeatherDisplay:10.37,2013-01-16 15:11:00,
2013-01-16 09:16:00,21.4,15.6,30.01,South,186,8.1,15.0,78,0.00,CLR,,0.00,WeatherDisplay:10.37,2013-01-16 15:16:00,
2013-01-16 09:22:00,21.9,15.8,30.00,SSW,200,8.6,13.0,77,0.00,CLR,,0.00,WeatherDisplay:10.37,2013-01-16 15:22:00,
2013-01-16 09:27:00,22.4,16.3,29.99,South,184,9.4,15.0,77,0.00,CLR,,0.00,WeatherDisplay:10.37,2013-01-16 15:27:00,
2013-01-16 09:32:00,22.9,16.5,29.99,SW,215,8.1,12.7,76,0.00,CLR,,0.00,WeatherDisplay:10.37,2013-01-16 15:32:00,
2013-01-16 09:37:00,23.3,16.9,30.00,SSW,194,7.3,10.4,76,0.00,CLR,,0.00,WeatherDisplay:10.37,2013-01-16 15:37:00,
2013-01-16 09:42:00,23.9,17.4,30.00,SSW,194,5.5,6.9,76,0.00,CLR,,0.00,WeatherDisplay:10.37,2013-01-16 15:42:00,
2013-01-16 09:47:00,24.3,17.2,30.00,South,191,9.1,15.0,74,0.00,CLR,,0.00,WeatherDisplay:10.37,2013-01-16 15:47:00,
2013-01-16 09:52:00,24.5,17.1,29.99,South,178,6.0,11.5,73,0.00,CLR,,0.00,WeatherDisplay:10.37,2013-01-16 15:52:00,
2013-01-16 09:57:00,24.7,17.3,29.99,SSE,158,13.0,13.0,73,0.00,CLR,,0.00,WeatherDisplay:10.37,2013-01-16 15:57:00,
2013-01-16 10:02:00,24.9,17.5,29.99,SSE,153,7.1,10.4,73,0.00,CLR,,0.00,WeatherDisplay:10.37,2013-01-16 16:02:00,
2013-01-16 10:07:00,25.3,17.9,29.99,SSW,196,10.3,12.7,73,0.00,CLR,,0.00,WeatherDisplay:10.37,2013-01-16 16:07:00,
2013-01-16 10:12:00,25.6,18.1,29.99,South,171,12.6,17.3,73,0.00,CLR,,0.00,WeatherDisplay:10.37,2013-01-16 16:12:00,
2013-01-16 10:17:00,26.1,18.6,29.99,SW,229,8.3,11.5,73,0.00,CLR,,0.00,WeatherDisplay:10.37,2013-01-16 16:17:00,
2013-01-16 10:22:00,26.2,18.4,29.99,SSE,149,8.6,12.7,72,0.00,CLR,,0.00,WeatherDisplay:10.37,2013-01-16 16:22:00,
2013-01-16 10:27:00,26.4,18.6,29.99,South,189,8.4,12.7,72,0.00,CLR,,0.00,WeatherDisplay:10.37,2013-01-16 16:27:00,
2013-01-16 10:32:00,26.6,18.8,29.99,SSW,192,12.0,16.1,72,0.00,CLR,,0.00,WeatherDisplay:10.37,2013-01-16 16:32:00,
2013-01-16 10:37:00,27.1,19.6,29.98,South,175,8.1,10.4,73,0.00,CLR,,0.00,WeatherDisplay:10.37,2013-01-16 16:37:00,
2013-01-16 10:42:00,27.4,19.9,29.98,South,183,9.0,11.5,73,0.00,CLR,,0.00,WeatherDisplay:10.37,2013-01-16 16:42:00,
2013-01-16 10:47:00,27.6,19.8,29.97,SSW,205,12.8,13.8,72,0.00,CLR,,0.00,WeatherDisplay:10.37,2013-01-16 16:47:00,
2013-01-16 10:52:00,27.9,20.4,29.97,SSW,196,7.3,12.7,73,0.00,CLR,,0.00,WeatherDisplay:10.37,2013-01-16 16:52:00,
2013-01-16 10:57:00,28.3,20.4,29.96,SSW,199,10.6,19.6,72,0.00,CLR,,0.00,WeatherDisplay:10.37,2013-01-16 16:57:00,
2013-01-16 11:02:00,28.6,20.7,29.96,SW,228,13.4,17.3,72,0.00,CLR,,0.00,WeatherDisplay:10.37,2013-01-16 17:02:00,
2013-01-16 11:07:00,28.8,20.9,29.96,SSW,192,11.8,16.1,72,0.00,CLR,,0.00,WeatherDisplay:10.37,2013-01-16 17:07:00,
2013-01-16 11:12:00,29.0,21.4,29.95,South,171,11.0,11.5,73,0.00,CLR,,0.00,WeatherDisplay:10.37,2013-01-16 17:12:00,
2013-01-16 11:17:00,29.2,21.3,29.95,SSW,194,13.2,17.3,72,0.00,CLR,,0.00,WeatherDisplay:10.37,2013-01-16 17:17:00,
2013-01-16 11:22:00,29.3,21.4,29.94,SSW,196,12.7,13.8,72,0.00,CLR,,0.00,WeatherDisplay:10.37,2013-01-16 17:22:00,
2013-01-16 11:27:00,29.5,21.3,29.94,South,186,12.6,17.3,71,0.00,CLR,,0.00,WeatherDisplay:10.37,2013-01-16 17:27:00,
2013-01-16 11:32:00,29.9,22.0,29.94,SW,220,10.5,17.3,72,0.00,CLR,,0.00,WeatherDisplay:10.37,2013-01-16 17:32:00,
2013-01-16 11:37:00,30.2,22.3,29.94,SW,220,12.2,16.1,72,0.00,CLR,,0.00,WeatherDisplay:10.37,2013-01-16 17:37:00,
2013-01-16 11:43:00,30.5,22.2,29.93,SSW,205,12.2,21.0,71,0.00,CLR,,0.00,WeatherDisplay:10.37,2013-01-16 17:43:00,
2013-01-16 11:48:00,30.7,22.4,29.93,South,184,12.1,17.3,71,0.00,CLR,,0.00,WeatherDisplay:10.37,2013-01-16 17:48:00,
2013-01-16 11:53:00,31.0,22.7,29.93,South,190,12.2,18.4,71,0.00,CLR,,0.00,WeatherDisplay:10.37,2013-01-16 17:53:00,
2013-01-16 11:58:00,31.0,22.4,29.92,South,188,11.3,15.0,70,0.00,CLR,,0.00,WeatherDisplay:10.37,2013-01-16 17:58:00,
2013-01-16 12:03:00,31.2,22.5,29.92,SSW,203,10.7,10.7,70,0.00,CLR,,0.00,WeatherDisplay:10.37,2013-01-16 18:03:00,
2013-01-16 12:08:00,31.5,22.5,29.92,SW,216,10.9,18.4,69,0.00,CLR,,0.00,WeatherDisplay:10.37,2013-01-16 18:08:00,
2013-01-16 12:13:00,31.9,23.2,29.92,South,188,9.9,16.1,70,0.00,CLR,,0.00,WeatherDisplay:10.37,2013-01-16 18:13:00,
2013-01-16 12:18:00,32.0,23.0,29.91,South,170,9.6,17.3,69,0.00,CLR,,0.00,WeatherDisplay:10.37,2013-01-16 18:18:00,
2013-01-16 12:23:00,32.3,23.3,29.91,South,185,9.1,11.5,69,0.00,CLR,,0.00,WeatherDisplay:10.37,2013-01-16 18:23:00,
2013-01-16 12:28:00,32.4,23.4,29.90,South,190,12.5,12.7,69,0.00,CLR,,0.00,WeatherDisplay:10.37,2013-01-16 18:28:00,
2013-01-16 12:33:00,32.6,23.6,29.90,South,187,10.3,17.3,69,0.00,CLR,,0.00,WeatherDisplay:10.37,2013-01-16 18:33:00,
2013-01-16 12:38:00,32.8,23.4,29.89,SSW,203,15.8,23.0,68,0.00,CLR,,0.00,WeatherDisplay:10.37,2013-01-16 18:38:00,
2013-01-16 12:43:00,33.0,23.6,29.89,SSW,194,6.5,8.1,68,0.00,CLR,,0.00,WeatherDisplay:10.37,2013-01-16 18:43:00,
2013-01-16 12:48:00,33.2,23.8,29.89,SSE,163,8.8,13.8,68,0.00,CLR,,0.00,WeatherDisplay:10.37,2013-01-16 18:48:00,
2013-01-16 12:53:00,33.2,23.4,29.89,SSW,196,14.4,18.4,67,0.00,CLR,,0.00,WeatherDisplay:10.37,2013-01-16 18:53:00,
2013-01-16 12:58:00,33.3,23.5,29.89,South,184,13.1,19.6,67,0.00,CLR,,0.00,WeatherDisplay:10.37,2013-01-16 18:58:00,
2013-01-16 13:03:00,33.5,24.1,29.89,SSW,197,14.8,19.6,68,0.00,CLR,,0.00,WeatherDisplay:10.37,2013-01-16 19:03:00,
2013-01-16 13:08:00,33.7,24.3,29.89,SSW,194,11.8,15.0,68,0.00,CLR,,0.00,WeatherDisplay:10.37,2013-01-16 19:08:00,
2013-01-16 13:13:00,33.8,24.4,29.89,SW,217,10.4,16.1,68,0.00,CLR,,0.00,WeatherDisplay:10.37,2013-01-16 19:13:00,
2013-01-16 13:18:00,33.9,24.4,29.90,South,174,10.4,16.1,68,0.00,CLR,,0.00,WeatherDisplay:10.37,2013-01-16 19:18:00,
2013-01-16 13:23:00,33.7,24.6,29.90,South,190,10.1,16.1,69,0.00,CLR,,0.00,WeatherDisplay:10.37,2013-01-16 19:23:00,
2013-01-16 13:28:00,33.5,24.4,29.90,SSW,195,14.0,14.0,69,0.00,CLR,,0.00,WeatherDisplay:10.37,2013-01-16 19:28:00,
2013-01-16 13:33:00,33.5,24.8,29.90,South,178,9.0,11.5,70,0.00,CLR,,0.00,WeatherDisplay:10.37,2013-01-16 19:33:00,
2013-01-16 13:38:00,33.6,25.2,29.90,SSW,202,6.2,9.2,71,0.00,CLR,,0.00,WeatherDisplay:10.37,2013-01-16 19:38:00,
2013-01-16 13:43:00,33.7,25.6,29.91,SW,226,11.3,13.8,72,0.00,CLR,,0.00,WeatherDisplay:10.37,2013-01-16 19:43:00,
2013-01-16 13:48:00,33.8,24.4,29.91,SSW,210,13.6,17.3,68,0.00,CLR,,0.00,WeatherDisplay:10.37,2013-01-16 19:48:00,
2013-01-16 13:53:00,33.5,24.1,29.91,SSW,205,13.7,16.1,68,0.00,CLR,,0.00,WeatherDisplay:10.37,2013-01-16 19:53:00,
2013-01-16 13:58:00,33.1,23.7,29.90,South,190,13.5,15.0,68,0.00,CLR,,0.00,WeatherDisplay:10.37,2013-01-16 19:58:00,
2013-01-16 14:03:00,33.0,23.9,29.91,SW,222,15.7,16.1,69,0.00,CLR,,0.00,WeatherDisplay:10.37,2013-01-16 20:03:00,
2013-01-16 14:08:00,32.9,24.2,29.91,SSW,207,7.7,10.4,70,0.00,CLR,,0.00,WeatherDisplay:10.37,2013-01-16 20:08:00,
2013-01-16 14:13:00,32.9,24.5,29.90,South,191,15.4,19.6,71,0.00,CLR,,0.00,WeatherDisplay:10.37,2013-01-16 20:13:00,
2013-01-16 14:18:00,32.8,24.4,29.91,WSW,244,11.4,19.6,71,0.00,CLR,,0.00,WeatherDisplay:10.37,2013-01-16 20:18:00,
2013-01-16 14:23:00,32.7,24.7,29.91,South,187,9.2,16.1,72,0.00,CLR,,0.00,WeatherDisplay:10.37,2013-01-16 20:23:00,
2013-01-16 14:29:00,32.6,24.9,29.92,WSW,252,11.5,12.7,73,0.00,CLR,,0.00,WeatherDisplay:10.37,2013-01-16 20:29:00,
2013-01-16 14:34:00,32.5,25.1,29.92,SSW,193,7.6,11.5,74,0.00,CLR,,0.00,WeatherDisplay:10.37,2013-01-16 20:34:00,
2013-01-16 14:39:00,32.4,25.0,29.92,SSW,198,8.0,11.5,74,0.00,CLR,,0.00,WeatherDisplay:10.37,2013-01-16 20:39:00,
2013-01-16 14:44:00,32.4,25.4,29.92,SW,217,6.3,11.5,75,0.00,CLR,,0.00,WeatherDisplay:10.37,2013-01-16 20:44:00,
2013-01-16 14:49:00,32.4,25.4,29.92,WSW,237,7.3,10.4,75,0.00,CLR,,0.00,WeatherDisplay:10.37,2013-01-16 20:49:00,
2013-01-16 14:54:00,32.4,25.4,29.92,SSW,198,8.1,10.4,75,0.00,CLR,,0.00,WeatherDisplay:10.37,2013-01-16 20:54:00,
2013-01-16 14:59:00,32.5,25.5,29.92,SSW,213,12.8,20.7,75,0.00,CLR,,0.00,WeatherDisplay:10.37,2013-01-16 20:59:00,
2013-01-16 15:04:00,32.5,25.8,29.92,SSW,211,8.9,13.8,76,0.00,CLR,,0.00,WeatherDisplay:10.37,2013-01-16 21:04:00,
2013-01-16 15:09:00,32.5,25.8,29.93,WSW,240,7.9,19.6,76,0.00,CLR,,0.00,WeatherDisplay:10.37,2013-01-16 21:09:00,
2013-01-16 15:14:00,32.6,25.9,29.93,SW,221,10.4,19.6,76,0.00,CLR,,0.00,WeatherDisplay:10.37,2013-01-16 21:14:00,
2013-01-16 15:19:00,32.6,25.9,29.93,SSW,207,12.1,16.1,76,0.00,CLR,,0.00,WeatherDisplay:10.37,2013-01-16 21:19:00,
2013-01-16 15:24:00,32.6,25.9,29.94,South,191,7.2,15.0,76,0.00,CLR,,0.00,WeatherDisplay:10.37,2013-01-16 21:24:00,
2013-01-16 15:29:00,32.7,26.0,29.93,South,188,9.7,12.7,76,0.00,CLR,,0.00,WeatherDisplay:10.37,2013-01-16 21:29:00,
2013-01-16 15:35:00,32.7,26.3,29.94,SSW,196,8.2,13.8,77,0.00,CLR,,0.00,WeatherDisplay:10.37,2013-01-16 21:35:00,
2013-01-16 15:40:00,32.7,26.3,29.94,SW,217,11.7,12.0,77,0.00,CLR,,0.00,WeatherDisplay:10.37,2013-01-16 21:40:00,
2013-01-16 15:45:00,32.7,26.3,29.94,SSW,200,9.0,19.6,77,0.00,CLR,,0.00,WeatherDisplay:10.37,2013-01-16 21:45:00,
2013-01-16 15:50:00,32.7,26.3,29.94,SW,217,7.4,16.1,77,0.00,CLR,,0.00,WeatherDisplay:10.37,2013-01-16 21:50:00,
2013-01-16 15:55:00,32.7,26.3,29.95,South,179,7.5,13.8,77,0.00,CLR,,0.00,WeatherDisplay:10.37,2013-01-16 21:55:00,
2013-01-16 16:00:00,32.8,26.4,29.96,South,184,9.1,12.7,77,0.00,CLR,,0.00,WeatherDisplay:10.37,2013-01-16 22:00:00,
2013-01-16 16:05:00,32.8,26.4,29.96,SSW,205,6.3,8.1,77,0.00,CLR,,0.00,WeatherDisplay:10.37,2013-01-16 22:05:00,
2013-01-16 16:10:00,32.9,26.8,29.96,SW,230,11.2,13.8,78,0.00,CLR,,0.00,WeatherDisplay:10.37,2013-01-16 22:10:00,
2013-01-16 16:15:00,32.9,26.8,29.96,SSW,202,9.5,13.8,78,0.00,CLR,,0.00,WeatherDisplay:10.37,2013-01-16 22:15:00,
2013-01-16 16:20:00,32.9,26.8,29.96,SW,217,8.8,10.4,78,0.00,CLR,,0.00,WeatherDisplay:10.37,2013-01-16 22:20:00,
2013-01-16 16:25:00,32.9,26.8,29.96,SW,215,10.9,17.3,78,0.00,CLR,,0.00,WeatherDisplay:10.37,2013-01-16 22:25:00,
2013-01-16 16:30:00,32.8,26.7,29.97,SSW,213,9.9,13.8,78,0.00,CLR,,0.00,WeatherDisplay:10.37,2013-01-16 22:30:00,
2013-01-16 16:35:00,32.9,26.8,29.97,SW,223,8.7,10.4,78,0.00,CLR,,0.00,WeatherDisplay:10.37,2013-01-16 22:35:00,
2013-01-16 16:40:00,32.8,26.7,29.98,SSW,206,7.4,11.5,78,0.00,CLR,,0.00,WeatherDisplay:10.37,2013-01-16 22:40:00,
2013-01-16 16:45:00,32.8,27.0,29.98,WSW,246,7.8,13.8,79,0.00,CLR,,0.00,WeatherDisplay:10.37,2013-01-16 22:45:00,
2013-01-16 16:50:00,32.8,27.0,29.98,SSW,207,7.5,12.7,79,0.00,CLR,,0.00,WeatherDisplay:10.37,2013-01-16 22:50:00,
2013-01-16 16:55:00,32.8,27.0,29.98,SSW,211,7.8,11.5,79,0.00,CLR,,0.00,WeatherDisplay:10.37,2013-01-16 22:55:00,
2013-01-16 17:00:00,32.8,27.0,29.98,South,180,5.9,12.7,79,0.00,CLR,,0.00,WeatherDisplay:10.37,2013-01-16 23:00:00,
2013-01-16 17:05:00,32.7,26.9,29.98,South,184,7.4,10.4,79,0.00,CLR,,0.00,WeatherDisplay:10.37,2013-01-16 23:05:00,
2013-01-16 17:10:00,32.5,26.7,29.98,SSW,204,7.2,10.0,79,0.00,CLR,,0.00,WeatherDisplay:10.37,2013-01-16 23:10:00,
2013-01-16 17:15:00,32.4,26.9,29.98,SSW,200,9.1,10.4,80,0.00,CLR,,0.00,WeatherDisplay:10.37,2013-01-16 23:15:00,
2013-01-16 17:20:00,32.4,26.9,29.98,South,177,5.9,11.5,80,0.00,CLR,,0.00,WeatherDisplay:10.37,2013-01-16 23:20:00,
2013-01-16 17:25:00,32.4,26.9,29.99,South,190,7.3,9.2,80,0.00,CLR,,0.00,WeatherDisplay:10.37,2013-01-16 23:25:00,
2013-01-16 17:30:00,32.4,26.9,29.98,SW,216,5.1,12.7,80,0.00,CLR,,0.00,WeatherDisplay:10.37,2013-01-16 23:30:00,
2013-01-16 17:35:00,32.4,26.9,29.98,SSW,209,7.0,7.0,80,0.00,CLR,,0.00,WeatherDisplay:10.37,2013-01-16 23:35:00,
2013-01-16 17:40:00,32.1,26.6,29.99,SSW,196,5.3,6.9,80,0.00,CLR,,0.00,WeatherDisplay:10.37,2013-01-16 23:40:00,
2013-01-16 17:46:00,31.9,26.7,29.99,SSW,207,5.0,10.4,81,0.00,CLR,,0.00,WeatherDisplay:10.37,2013-01-16 23:46:00,
2013-01-16 17:51:00,31.7,26.5,30.00,SW,221,6.6,11.5,81,0.00,CLR,,0.00,WeatherDisplay:10.37,2013-01-16 23:51:00,
2013-01-16 17:56:00,31.6,26.4,30.00,SW,219,4.9,6.9,81,0.00,CLR,,0.00,WeatherDisplay:10.37,2013-01-16 23:56:00,
2013-01-16 18:01:00,31.6,26.4,30.00,SSW,192,5.6,9.2,81,0.00,CLR,,0.00,WeatherDisplay:10.37,2013-01-17 00:01:00,
2013-01-16 18:06:00,31.4,26.2,30.00,South,190,6.6,8.1,81,0.00,CLR,,0.00,WeatherDisplay:10.37,2013-01-17 00:06:00,
2013-01-16 18:11:00,31.0,26.1,30.01,SSW,202,4.2,8.1,82,0.00,CLR,,0.00,WeatherDisplay:10.37,2013-01-17 00:11:00,
2013-01-16 18:16:00,30.8,26.0,30.01,SSW,211,4.7,5.8,82,0.00,CLR,,0.00,WeatherDisplay:10.37,2013-01-17 00:16:00,
2013-01-16 18:21:00,30.8,26.2,30.01,SW,223,5.6,10.0,83,0.00,CLR,,0.00,WeatherDisplay:10.37,2013-01-17 00:21:00,
2013-01-16 18:26:00,30.8,26.2,30.01,SW,222,5.4,8.1,83,0.00,CLR,,0.00,WeatherDisplay:10.37,2013-01-17 00:26:00,
2013-01-16 18:31:00,30.8,26.2,30.01,SSW,192,5.3,5.8,83,0.00,CLR,,0.00,WeatherDisplay:10.37,2013-01-17 00:31:00,
2013-01-16 18:36:00,30.8,26.2,30.01,SW,215,5.5,8.0,83,0.00,CLR,,0.00,WeatherDisplay:10.37,2013-01-17 00:36:00,
2013-01-16 18:41:00,30.7,26.1,30.01,SSW,198,5.8,8.1,83,0.00,CLR,,0.00,WeatherDisplay:10.37,2013-01-17 00:41:00,
2013-01-16 18:46:00,30.5,26.0,30.02,SW,222,4.1,7.0,83,0.00,CLR,,0.00,WeatherDisplay:10.37,2013-01-17 00:46:00,
2013-01-16 18:51:00,30.6,26.3,30.02,SSW,205,5.0,5.0,84,0.00,CLR,,0.00,WeatherDisplay:10.37,2013-01-17 00:51:00,
2013-01-16 18:56:00,30.4,25.9,30.02,SSW,209,4.6,5.8,83,0.00,CLR,,0.00,WeatherDisplay:10.37,2013-01-17 00:56:00,
2013-01-16 19:01:00,30.3,26.0,30.03,SSW,209,3.7,4.6,84,0.00,CLR,,0.00,WeatherDisplay:10.37,2013-01-17 01:01:00,
2013-01-16 19:06:00,30.3,26.0,30.03,SW,215,2.1,3.5,84,0.00,CLR,,0.00,WeatherDisplay:10.37,2013-01-17 01:06:00,
2013-01-16 19:11:00,30.0,25.8,30.03,SSW,205,2.3,3.5,84,0.00,CLR,,0.00,WeatherDisplay:10.37,2013-01-17 01:11:00,
2013-01-16 19:16:00,29.7,25.7,30.03,SSW,205,2.0,2.3,85,0.00,CLR,,0.00,WeatherDisplay:10.37,2013-01-17 01:16:00,
2013-01-16 19:21:00,29.7,25.7,30.03,SSW,207,3.3,3.5,85,0.00,CLR,,0.00,WeatherDisplay:10.37,2013-01-17 01:21:00,
2013-01-16 19:26:00,30.1,26.4,30.03,SSW,206,2.7,4.6,86,0.00,CLR,,0.00,WeatherDisplay:10.37,2013-01-17 01:26:00,
2013-01-16 19:31:00,30.6,26.9,30.04,SSW,200,3.6,5.8,86,0.00,CLR,,0.00,WeatherDisplay:10.37,2013-01-17 01:31:00,
2013-01-16 19:36:00,31.2,27.5,30.03,South,186,4.4,5.8,86,0.00,CLR,,0.00,WeatherDisplay:10.37,2013-01-17 01:36:00,
2013-01-16 19:41:00,31.7,28.0,30.04,SSW,198,4.7,6.9,86,0.00,CLR,,0.00,WeatherDisplay:10.37,2013-01-17 01:41:00,
2013-01-16 19:47:00,31.9,27.9,30.04,South,190,4.0,6.9,85,0.00,CLR,,0.00,WeatherDisplay:10.37,2013-01-17 01:47:00,
2013-01-16 19:52:00,31.9,27.9,30.05,SSW,211,4.6,4.6,85,0.00,CLR,,0.00,WeatherDisplay:10.37,2013-01-17 01:52:00,
2013-01-16 19:57:00,32.1,28.1,30.05,South,181,4.3,6.9,85,0.00,CLR,,0.00,WeatherDisplay:10.37,2013-01-17 01:57:00,
2013-01-16 20:02:00,31.9,27.9,30.05,South,190,4.8,6.9,85,0.00,CLR,,0.00,WeatherDisplay:10.37,2013-01-17 02:02:00,
2013-01-16 20:07:00,31.6,27.9,30.05,SSW,205,6.3,10.4,86,0.00,CLR,,0.00,WeatherDisplay:10.37,2013-01-17 02:07:00,
2013-01-16 20:12:00,31.6,27.9,30.05,South,182,7.9,8.1,86,0.00,CLR,,0.00,WeatherDisplay:10.37,2013-01-17 02:12:00,
2013-01-16 20:17:00,31.5,27.8,30.05,SW,216,5.9,8.1,86,0.00,CLR,,0.00,WeatherDisplay:10.37,2013-01-17 02:17:00,
2013-01-16 20:22:00,31.6,27.9,30.05,South,178,4.0,5.8,86,0.00,CLR,,0.00,WeatherDisplay:10.37,2013-01-17 02:22:00,
2013-01-16 20:27:00,31.7,28.0,30.05,South,188,6.6,10.4,86,0.00,CLR,,0.00,WeatherDisplay:10.37,2013-01-17 02:27:00,
2013-01-16 20:32:00,31.7,28.0,30.05,South,178,4.9,5.8,86,0.00,CLR,,0.00,WeatherDisplay:10.37,2013-01-17 02:32:00,
2013-01-16 20:37:00,31.7,28.0,30.06,SSW,192,4.2,4.6,86,0.00,CLR,,0.00,WeatherDisplay:10.37,2013-01-17 02:37:00,
2013-01-16 20:42:00,31.9,28.5,30.06,SSW,196,4.0,6.9,87,0.00,CLR,,0.00,WeatherDisplay:10.37,2013-01-17 02:42:00,
2013-01-16 20:47:00,32.3,28.6,30.06,SW,220,5.0,5.8,86,0.00,CLR,,0.00,WeatherDisplay:10.37,2013-01-17 02:47:00,
2013-01-16 20:52:00,32.5,28.8,30.06,South,186,3.5,6.9,86,0.00,CLR,,0.00,WeatherDisplay:10.37,2013-01-17 02:52:00,
2013-01-16 20:57:00,32.6,28.9,30.06,SSW,206,5.0,6.0,86,0.00,CLR,,0.00,WeatherDisplay:10.37,2013-01-17 02:57:00,
2013-01-16 21:02:00,32.6,28.9,30.06,SW,221,5.2,8.1,86,0.00,CLR,,0.00,WeatherDisplay:10.37,2013-01-17 03:02:00,
2013-01-16 21:07:00,32.5,28.8,30.06,SSW,201,6.6,6.9,86,0.00,CLR,,0.00,WeatherDisplay:10.37,2013-01-17 03:07:00,
2013-01-16 21:12:00,32.5,28.8,30.06,SW,219,4.4,8.1,86,0.00,CLR,,0.00,WeatherDisplay:10.37,2013-01-17 03:12:00,
2013-01-16 21:17:00,32.6,28.9,30.06,SSW,208,5.7,5.8,86,0.00,CLR,,0.00,WeatherDisplay:10.37,2013-01-17 03:17:00,
2013-01-16 21:22:00,32.8,29.1,30.06,WSW,241,3.0,3.5,86,0.00,CLR,,0.00,WeatherDisplay:10.37,2013-01-17 03:22:00,
2013-01-16 21:27:00,33.0,29.3,30.06,SSW,212,5.0,5.0,86,0.00,CLR,,0.00,WeatherDisplay:10.37,2013-01-17 03:27:00,
2013-01-16 21:32:00,33.1,29.4,30.06,WSW,250,2.0,3.0,86,0.00,CLR,,0.00,WeatherDisplay:10.37,2013-01-17 03:32:00,
2013-01-16 21:37:00,33.2,29.8,30.06,WSW,250,2.4,4.6,87,0.00,CLR,,0.00,WeatherDisplay:10.37,2013-01-17 03:37:00,
2013-01-16 21:42:00,33.3,29.8,30.06,West,272,2.7,3.5,87,0.00,CLR,,0.00,WeatherDisplay:10.37,2013-01-17 03:42:00,
2013-01-16 21:47:00,33.5,30.3,30.06,West,264,2.0,3.5,88,0.00,CLR,,0.00,WeatherDisplay:10.37,2013-01-17 03:47:00,
2013-01-16 21:52:00,34.3,30.8,30.06,West,274,2.8,5.0,87,0.00,CLR,,0.00,WeatherDisplay:10.37,2013-01-17 03:52:00,
2013-01-16 21:58:00,34.5,31.0,30.07,West,263,3.4,5.8,87,0.00,CLR,,0.00,WeatherDisplay:10.37,2013-01-17 03:58:00,
2013-01-16 22:03:00,34.5,31.0,30.06,WSW,238,5.2,5.8,87,0.00,CLR,,0.00,WeatherDisplay:10.37,2013-01-17 04:03:00,
2013-01-16 22:08:00,34.5,31.0,30.06,WSW,240,3.2,3.5,87,0.00,CLR,,0.00,WeatherDisplay:10.37,2013-01-17 04:08:00,
2013-01-16 22:13:00,34.4,30.9,30.06,WSW,242,3.5,6.0,87,0.00,CLR,,0.00,WeatherDisplay:10.37,2013-01-17 04:13:00,
2013-01-16 22:18:00,34.5,31.3,30.06,West,259,3.9,3.9,88,0.00,CLR,,0.00,WeatherDisplay:10.37,2013-01-17 04:18:00,
2013-01-16 22:23:00,34.4,31.2,30.06,WSW,245,4.8,6.9,88,0.00,CLR,,0.00,WeatherDisplay:10.37,2013-01-17 04:23:00,
2013-01-16 22:28:00,34.4,31.2,30.06,WSW,238,6.0,6.0,88,0.00,CLR,,0.00,WeatherDisplay:10.37,2013-01-17 04:28:00,
2013-01-16 22:33:00,34.6,31.1,30.07,WSW,248,5.6,8.1,87,0.00,CLR,,0.00,WeatherDisplay:10.37,2013-01-17 04:33:00,
2013-01-16 22:38:00,34.6,31.1,30.06,SW,218,3.0,8.1,87,0.00,CLR,,0.00,WeatherDisplay:10.37,2013-01-17 04:38:00,
2013-01-16 22:43:00,34.9,31.4,30.07,SW,223,3.4,4.6,87,0.00,CLR,,0.00,WeatherDisplay:10.37,2013-01-17 04:43:00,
2013-01-16 22:48:00,35.1,31.0,30.06,SSW,211,6.4,8.1,85,0.00,CLR,,0.00,WeatherDisplay:10.37,2013-01-17 04:48:00,
2013-01-16 22:53:00,35.2,31.1,30.06,SSW,208,3.5,3.5,85,0.00,CLR,,0.00,WeatherDisplay:10.37,2013-01-17 04:53:00,
2013-01-16 22:58:00,35.0,30.9,30.07,SSW,200,4.7,4.7,85,0.00,CLR,,0.00,WeatherDisplay:10.37,2013-01-17 04:58:00,
2013-01-16 23:00:00,34.8,30.8,30.06,South,187,5.1,5.8,85,0.00,CLR,,0.00,WeatherDisplay:10.37,2013-01-17 05:00:00,
2013-01-16 23:01:00,34.8,30.8,30.07,SSW,193,3.7,4.6,85,0.00,CLR,,0.00,WeatherDisplay:10.37,2013-01-17 05:01:00,
2013-01-16 23:03:00,34.6,30.6,30.07,SSW,212,2.5,3.5,85,0.00,CLR,,0.00,WeatherDisplay:10.37,2013-01-17 05:03:00,
2013-01-16 23:08:00,34.5,30.7,30.07,SSW,198,6.0,6.0,86,0.00,CLR,,0.00,WeatherDisplay:10.37,2013-01-17 05:08:00,
2013-01-16 23:13:00,34.5,30.7,30.07,South,191,4.2,5.8,86,0.00,CLR,,0.00,WeatherDisplay:10.37,2013-01-17 05:13:00,
2013-01-16 23:18:00,34.5,30.7,30.08,SSW,203,3.3,5.8,86,0.00,CLR,,0.00,WeatherDisplay:10.37,2013-01-17 05:18:00,
2013-01-16 23:23:00,34.5,30.7,30.08,SW,234,2.7,4.6,86,0.00,CLR,,0.00,WeatherDisplay:10.37,2013-01-17 05:23:00,
2013-01-16 23:28:00,34.4,30.9,30.09,WSW,250,3.1,3.5,87,0.00,CLR,,0.00,WeatherDisplay:10.37,2013-01-17 05:28:00,
2013-01-16 23:34:00,34.3,30.8,30.09,WSW,240,2.9,3.5,87,0.00,CLR,,0.00,WeatherDisplay:10.37,2013-01-17 05:34:00,
2013-01-16 23:39:00,34.3,30.8,30.10,WSW,258,2.3,3.5,87,0.00,CLR,,0.00,WeatherDisplay:10.37,2013-01-17 05:39:00,
2013-01-16 23:44:00,34.5,31.3,30.10,WSW,258,3.9,5.8,88,0.00,CLR,,0.00,WeatherDisplay:10.37,2013-01-17 05:44:00,
2013-01-16 23:49:00,34.7,31.2,30.10,WSW,249,3.6,4.6,87,0.00,CLR,,0.00,WeatherDisplay:10.37,2013-01-17 05:49:00,
2013-01-16 23:54:00,34.8,31.3,30.11,WSW,255,4.9,5.8,87,0.00,CLR,,0.00,WeatherDisplay:10.37,2013-01-17 05:54:00,
2013-01-16 23:59:00,35.2,31.7,30.11,NW,315,5.3,5.3,87,0.00,CLR,,0.00,WeatherDisplay:10.37,2013-01-17 05:59:00,